Time;durP1;ratioP1;P1;durP2;ratioP2;P2;SDS_P1;SDS_P2;PMS_P1;PMS_P2;Temp;Humidity;BMP_temperature;BMP_pressure;BME280_temperature;BME280_humidity;BME280_pressure;Samples;Min_cycle;Max_cycle;Signal;HPM_P1;HPM_P2
2023/05/05 00:02:38;;;;;;;5.32;1.80;;;;;;;15.25;51.70;100281.81;10313058;28;20050;-62
2023/05/05 00:07:40;;;;;;;5.63;2.22;;;;;;;15.39;51.37;100268.25;10334419;28;20150;-63
2023/05/05 00:12:42;;;;;;;2.55;1.67;;;;;;;15.43;51.37;100269.50;10332137;28;20054;-62
2023/05/05 00:17:43;;;;;;;4.45;2.28;;;;;;;15.49;51.18;100265.13;10329360;28;20054;-62
2023/05/05 00:22:47;;;;;;;3.05;1.77;;;;;;;15.49;51.56;100276.78;10333308;28;20058;-62
2023/05/05 00:27:49;;;;;;;5.07;1.83;;;;;;;15.50;51.50;100262.22;10333049;28;20144;-62
2023/05/05 00:32:50;;;;;;;3.47;2.30;;;;;;;15.52;51.67;100262.84;10326799;28;20078;-62
2023/05/05 00:37:52;;;;;;;4.88;2.15;;;;;;;15.45;52.04;100260.13;10327889;28;20058;-63
2023/05/05 00:42:53;;;;;;;3.30;2.28;;;;;;;15.45;51.90;100260.13;10324061;28;20058;-62
2023/05/05 00:47:57;;;;;;;2.80;1.90;;;;;;;15.43;52.61;100261.38;10325176;28;20153;-61
2023/05/05 00:53:04;;;;;;;5.65;2.05;;;;;;;15.38;52.82;100263.88;10328001;28;20059;-62
2023/05/05 00:58:06;;;;;;;7.60;2.40;;;;;;;15.46;52.25;100258.25;10322777;28;20050;-62
2023/05/05 01:03:08;;;;;;;5.18;2.28;;;;;;;15.51;52.74;100244.09;10325808;28;20047;-61
2023/05/05 01:08:25;;;;;;;3.33;2.05;;;;;;;15.50;52.92;100254.09;10331799;28;20113;-63
2023/05/05 01:13:44;;;;;;;5.65;2.38;;;;;;;15.46;53.03;100255.53;10308047;28;20042;-61
2023/05/05 01:19:25;;;;;;;2.60;2.40;;;;;;;15.42;53.14;100243.44;10308061;28;20050;-62
2023/05/05 01:24:55;;;;;;;3.70;2.28;;;;;;;15.50;53.06;100237.84;10308074;28;20112;-64
2023/05/05 01:30:16;;;;;;;7.07;2.50;;;;;;;15.48;53.34;100229.06;10299581;28;20062;-64
2023/05/05 01:35:24;;;;;;;2.15;1.90;;;;;;;15.47;53.24;100235.53;10300344;28;20050;-64
2023/05/05 01:40:29;;;;;;;4.25;2.55;;;;;;;15.43;53.33;100232.41;10300130;28;20074;-64
2023/05/05 01:45:34;;;;;;;4.50;2.20;;;;;;;15.35;53.36;100226.41;10300644;28;20581;-63
2023/05/05 01:50:36;;;;;;;4.18;2.33;;;;;;;15.18;53.73;100226.81;10297904;28;20078;-64
2023/05/05 01:55:39;;;;;;;6.55;2.80;;;;;;;15.19;54.02;100214.94;10313478;28;20058;-65
2023/05/05 02:00:42;;;;;;;6.55;2.85;;;;;;;15.21;53.88;100214.75;10313710;28;20137;-64
2023/05/05 02:05:46;;;;;;;3.78;2.47;;;;;;;15.13;54.14;100218.50;10314384;28;20132;-65
2023/05/05 02:10:49;;;;;;;4.97;2.55;;;;;;;15.07;54.48;100209.34;10315569;28;20077;-63
2023/05/05 02:15:52;;;;;;;3.83;2.92;;;;;;;14.86;54.96;100228.47;10310879;28;20054;-64
2023/05/05 02:20:53;;;;;;;4.50;3.33;;;;;;;14.65;55.52;100221.38;10313102;28;20145;-64
2023/05/05 02:26:01;;;;;;;4.28;3.00;;;;;;;14.48;56.13;100239.84;10313632;28;20054;-64
2023/05/05 02:31:04;;;;;;;;;;;;;;;14.57;55.01;100235.09;10311398;28;20106;-64
2023/05/05 02:36:20;;;;;;;5.93;2.80;;;;;;;14.73;54.79;100248.25;10309267;28;19926;-64
2023/05/05 02:41:23;;;;;;;3.10;2.35;;;;;;;14.72;55.46;100256.56;10311310;28;20518;-64
2023/05/05 02:46:26;;;;;;;5.55;3.00;;;;;;;14.72;55.61;100254.69;10311699;28;20082;-65
2023/05/05 02:51:27;;;;;;;3.05;2.30;;;;;;;14.59;55.95;100268.19;10315158;28;20141;-64
2023/05/05 02:56:49;;;;;;;5.70;2.50;;;;;;;14.47;56.34;100254.38;10316571;28;20556;-64
2023/05/05 03:02:17;;;;;;;10.18;3.45;;;;;;;14.55;56.09;100258.78;10316892;28;20148;-65
2023/05/05 03:07:29;;;;;;;3.05;2.28;;;;;;;14.52;56.37;100256.50;10302851;28;20134;-64
2023/05/05 03:12:38;;;;;;;3.47;2.20;;;;;;;14.54;56.29;100262.53;10302394;28;20188;-63
2023/05/05 03:17:41;;;;;;;2.67;2.00;;;;;;;14.49;56.32;100255.03;10306976;28;20461;-63
2023/05/05 03:22:43;;;;;;;8.48;2.75;;;;;;;14.46;56.66;100258.97;10306268;28;20058;-63
2023/05/05 03:27:45;;;;;;;4.45;2.38;;;;;;;14.37;56.83;100267.47;10303972;28;20133;-64
2023/05/05 03:32:46;;;;;;;6.80;2.42;;;;;;;14.36;57.24;100269.34;10302935;28;20070;-64
2023/05/05 03:37:47;;;;;;;4.97;2.90;;;;;;;14.47;56.92;100266.06;10300606;28;20061;-64
2023/05/05 03:42:49;;;;;;;4.50;2.63;;;;;;;14.58;56.63;100264.66;10303345;28;20141;-61
2023/05/05 03:47:50;;;;;;;3.28;2.35;;;;;;;14.60;56.66;100262.56;10306834;28;20054;-62
2023/05/05 03:52:52;;;;;;;3.13;2.45;;;;;;;14.55;56.84;100265.00;10307816;28;20078;-66
2023/05/05 03:57:53;;;;;;;5.82;3.03;;;;;;;14.58;57.01;100275.47;10350773;28;20026;-66
2023/05/05 04:02:54;;;;;;;5.68;2.53;;;;;;;14.60;56.91;100269.88;10333357;28;20046;-67
2023/05/05 04:07:57;;;;;;;7.40;3.92;;;;;;;14.74;57.01;100268.84;10337806;28;20313;-65
2023/05/05 04:12:58;;;;;;;4.75;2.38;;;;;;;14.84;56.65;100271.16;10334221;28;20569;-66
2023/05/05 04:18:00;;;;;;;3.40;2.35;;;;;;;14.85;57.01;100259.31;10325898;28;20062;-65
2023/05/05 04:23:01;;;;;;;9.77;2.17;;;;;;;14.83;57.18;100259.50;10330417;28;20063;-67
2023/05/05 04:28:03;;;;;;;5.47;3.15;;;;;;;14.83;57.13;100264.06;10337268;28;20046;-66
2023/05/05 04:33:04;;;;;;;6.15;2.92;;;;;;;14.83;56.99;100266.78;10337755;28;20094;-66
2023/05/05 04:38:05;;;;;;;4.00;2.95;;;;;;;14.81;57.12;100277.81;10299326;28;20054;-70
2023/05/05 04:43:07;;;;;;;7.85;3.65;;;;;;;14.82;56.92;100282.19;10296896;28;20039;-68
2023/05/05 04:48:08;;;;;;;4.82;3.00;;;;;;;14.84;56.91;100287.41;10300468;28;20051;-68
2023/05/05 04:53:10;;;;;;;5.88;3.22;;;;;;;14.91;57.05;100295.50;10297189;28;20073;-69
2023/05/05 04:58:11;;;;;;;6.28;3.85;;;;;;;14.97;56.88;100284.72;10300542;28;20105;-69
2023/05/05 05:03:13;;;;;;;5.93;3.72;;;;;;;15.04;56.73;100300.94;10302165;28;20073;-69
2023/05/05 05:08:15;;;;;;;7.32;3.38;;;;;;;15.03;56.73;100310.97;10300928;28;20124;-68
2023/05/05 05:13:17;;;;;;;5.13;3.92;;;;;;;15.11;56.32;100309.94;10300220;28;20043;-64
2023/05/05 05:18:19;;;;;;;6.43;3.90;;;;;;;15.25;56.10;100313.47;10304904;28;20441;-68
2023/05/05 05:23:20;;;;;;;5.90;3.80;;;;;;;15.34;56.10;100308.69;10300341;28;20234;-70
2023/05/05 05:28:21;;;;;;;8.15;4.07;;;;;;;15.44;55.87;100309.09;10295496;28;20058;-71
2023/05/05 05:33:23;;;;;;;9.88;4.57;;;;;;;15.54;55.79;100317.66;10299647;28;20105;-69
2023/05/05 05:38:24;;;;;;;8.80;4.32;;;;;;;15.65;55.82;100313.47;10300789;28;20089;-72
2023/05/05 05:43:26;;;;;;;7.43;4.50;;;;;;;15.79;55.56;100319.72;10297649;28;20038;-70
2023/05/05 05:48:28;;;;;;;7.72;3.78;;;;;;;15.96;55.60;100318.25;10294831;28;20544;-68
2023/05/05 05:53:29;;;;;;;9.57;4.53;;;;;;;16.14;55.37;100320.28;10294466;28;20047;-69
2023/05/05 05:58:31;;;;;;;9.15;4.65;;;;;;;16.30;55.04;100335.25;10297286;28;20128;-70
2023/05/05 06:03:32;;;;;;;10.18;4.90;;;;;;;16.45;54.55;100337.69;10300048;28;20141;-68
2023/05/05 06:08:34;;;;;;;8.98;4.47;;;;;;;16.59;54.26;100346.63;10304216;28;20134;-70
2023/05/05 06:13:35;;;;;;;6.65;4.55;;;;;;;16.72;53.85;100346.53;10299450;28;20093;-71
2023/05/05 06:18:37;;;;;;;9.77;4.97;;;;;;;16.84;53.60;100344.84;10296105;28;20053;-71
2023/05/05 06:23:38;;;;;;;6.47;4.90;;;;;;;16.93;53.03;100347.31;10291259;28;20406;-70
2023/05/05 06:28:40;;;;;;;8.63;6.03;;;;;;;17.10;52.46;100345.75;10293416;28;20088;-69
2023/05/05 06:33:42;;;;;;;10.60;4.97;;;;;;;17.21;52.04;100355.88;10298276;28;20081;-69
2023/05/05 06:38:43;;;;;;;8.82;6.18;;;;;;;17.43;51.73;100353.63;10297225;28;20109;-69
2023/05/05 06:43:45;;;;;;;8.55;5.88;;;;;;;17.56;51.77;100352.69;10304529;28;20373;-69
2023/05/05 06:48:47;;;;;;;6.95;5.32;;;;;;;17.70;51.38;100345.25;10323499;28;20160;-68
2023/05/05 06:53:48;;;;;;;9.45;5.93;;;;;;;17.81;51.08;100349.97;10320613;28;20047;-70
2023/05/05 06:58:50;;;;;;;11.30;6.13;;;;;;;17.94;51.07;100354.47;10313458;28;20101;-68
2023/05/05 07:03:51;;;;;;;14.27;7.30;;;;;;;18.09;50.65;100351.41;10314391;28;20122;-69
2023/05/05 07:08:53;;;;;;;12.70;6.57;;;;;;;18.25;50.68;100352.69;10306763;28;20065;-64
2023/05/05 07:13:54;;;;;;;10.95;6.93;;;;;;;18.34;50.32;100351.31;10307410;28;20418;-62
2023/05/05 07:18:55;;;;;;;10.63;6.35;;;;;;;18.55;50.30;100358.19;10303009;28;20058;-63
2023/05/05 07:23:57;;;;;;;14.52;6.63;;;;;;;18.80;49.73;100362.75;10307885;28;20062;-63
2023/05/05 07:28:58;;;;;;;11.00;6.40;;;;;;;19.06;49.35;100355.25;10309505;28;20146;-63
2023/05/05 07:34:00;;;;;;;10.77;6.82;;;;;;;19.39;48.79;100352.00;10306218;28;20082;-63
2023/05/05 07:39:01;;;;;;;12.40;5.70;;;;;;;19.45;48.58;100351.09;10304094;28;20093;-63
2023/05/05 07:44:02;;;;;;;13.00;6.20;;;;;;;19.74;48.22;100360.25;10306344;28;20074;-60
2023/05/05 07:49:05;;;;;;;11.02;6.28;;;;;;;19.97;47.81;100351.25;10402579;23;20101;-89
2023/05/05 07:54:07;;;;;;;14.15;6.60;;;;;;;20.16;47.49;100357.41;10414033;28;20046;-90
2023/05/05 07:59:10;;;;;;;12.52;5.32;;;;;;;20.38;46.88;100345.88;10408554;28;20050;-92
2023/05/05 08:04:12;;;;;;;13.20;5.93;;;;;;;20.42;46.69;100341.59;10416872;28;20077;-92
2023/05/05 08:09:14;;;;;;;8.70;5.40;;;;;;;20.40;46.43;100346.44;10423683;28;20042;-89
2023/05/05 08:14:16;;;;;;;15.10;5.45;;;;;;;20.60;45.98;100351.53;10445535;28;20050;-89
2023/05/05 08:19:18;;;;;;;8.57;4.60;;;;;;;20.85;45.36;100344.91;10410358;28;20045;-90
2023/05/05 08:24:30;;;;;;;11.10;5.47;;;;;;;21.10;45.24;100345.38;10415658;28;20034;-91
2023/05/05 08:29:34;;;;;;;9.07;4.40;;;;;;;21.22;44.96;100339.00;10407341;28;20045;-90
2023/05/05 08:34:49;;;;;;;11.40;4.95;;;;;;;21.29;45.30;100342.44;10395276;28;21007;-90
2023/05/05 08:39:53;;;;;;;7.95;4.32;;;;;;;21.59;44.78;100342.94;10396705;28;20044;-90
2023/05/05 08:44:55;;;;;;;9.52;5.15;;;;;;;21.97;44.86;100338.59;10433752;28;20033;-89
2023/05/05 08:50:00;;;;;;;17.08;4.43;;;;;;;22.32;44.85;100345.66;10394616;28;20053;-90
2023/05/05 08:55:23;;;;;;;5.53;4.13;;;;;;;22.48;45.13;100346.69;10407000;28;20249;-91
2023/05/05 09:00:26;;;;;;;8.05;3.78;;;;;;;22.71;45.20;100342.84;10406872;28;20049;-90
2023/05/05 09:05:28;;;;;;;7.43;3.72;;;;;;;23.14;44.61;100340.28;10358530;23;20584;-64
2023/05/05 09:10:31;;;;;;;10.90;4.05;;;;;;;23.33;44.40;100338.00;10341806;28;20050;-64
2023/05/05 09:15:32;;;;;;;4.55;3.17;;;;;;;23.32;44.62;100341.81;10338184;28;20508;-63
2023/05/05 09:20:36;;;;;;;4.95;3.28;;;;;;;23.29;44.85;100334.13;10332263;28;20054;-64
2023/05/05 09:25:39;;;;;;;6.47;3.22;;;;;;;23.40;44.69;100324.91;10341222;28;20062;-65
2023/05/05 09:30:45;;;;;;;6.20;3.20;;;;;;;23.56;44.38;100318.44;10341651;28;20352;-64
2023/05/05 09:35:51;;;;;;;5.97;3.20;;;;;;;23.66;44.22;100325.09;10341123;28;20526;-62
2023/05/05 09:40:53;;;;;;;;;;;;;;;23.70;44.51;100318.00;10344356;28;20050;-64
2023/05/05 09:46:05;;;;;;;36.60;29.73;;;;;;;23.92;44.40;100315.97;10341792;28;19934;-64
2023/05/05 09:51:07;;;;;;;5.50;2.97;;;;;;;24.27;44.15;100314.50;10345042;28;20050;-64
2023/05/05 09:56:09;;;;;;;20.30;15.80;;;;;;;24.35;44.21;100308.47;10343970;28;20054;-65
2023/05/05 10:01:23;;;;;;;4.95;2.55;;;;;;;24.82;43.47;100292.13;10340905;28;20038;-67
2023/05/05 10:06:43;;;;;;;7.70;3.30;;;;;;;25.26;42.63;100294.44;10339155;28;20050;-65
2023/05/05 10:11:46;;;;;;;6.88;2.28;;;;;;;25.51;42.07;100301.81;10347131;28;20053;-67
2023/05/05 10:16:49;;;;;;;3.38;1.40;;;;;;;25.79;40.81;100297.66;10345972;28;20544;-64
2023/05/05 10:21:53;;;;;;;3.28;1.17;;;;;;;25.91;40.10;100275.38;10351670;28;20501;-66
2023/05/05 10:26:57;;;;;;;4.32;1.60;;;;;;;26.42;39.09;100279.81;10362134;28;20077;-66
2023/05/05 10:32:08;;;;;;;3.15;0.98;;;;;;;26.76;38.36;100282.69;10353104;28;20496;-67
2023/05/05 10:37:30;;;;;;;3.78;0.73;;;;;;;26.66;37.56;100280.00;10360132;28;20050;-66
2023/05/05 10:42:32;;;;;;;3.67;0.50;;;;;;;26.62;36.34;100271.47;10352975;28;20042;-68
2023/05/05 10:47:35;;;;;;;4.65;0.75;;;;;;;27.07;35.98;100260.38;10360592;28;20674;-67
2023/05/05 10:53:06;;;;;;;2.80;0.50;;;;;;;27.67;35.12;100251.88;10360498;28;20050;-68
2023/05/05 10:58:35;;;;;;;2.08;1.63;;;;;;;27.53;35.14;100251.72;10360703;28;20093;-68
2023/05/05 11:04:15;;;;;;;1.63;0.70;;;;;;;27.93;34.06;100243.31;10356870;28;21274;-66
2023/05/05 11:09:26;;;;;;;2.40;0.70;;;;;;;27.77;33.75;100239.88;10360888;28;20133;-68
2023/05/05 11:14:28;;;;;;;2.25;0.50;;;;;;;27.68;34.01;100225.88;10361337;28;20575;-69
2023/05/05 11:19:41;;;;;;;0.80;0.60;;;;;;;27.67;33.79;100230.56;10353604;28;20112;-68
2023/05/05 11:24:43;;;;;;;4.15;0.40;;;;;;;27.65;33.02;100212.66;10348909;28;20060;-69
2023/05/05 11:30:05;;;;;;;5.60;0.50;;;;;;;27.65;32.48;100212.66;10349852;28;20674;-66
2023/05/05 11:35:07;;;;;;;1.10;0.40;;;;;;;27.60;32.11;100221.81;10350078;28;20459;-68
2023/05/05 11:40:28;;;;;;;5.93;0.30;;;;;;;27.81;31.23;100211.34;10349100;28;20129;-69
2023/05/05 11:45:30;;;;;;;0.35;0.20;;;;;;;27.97;30.64;100213.97;10351704;28;20078;-69
2023/05/05 11:50:31;;;;;;;4.03;0.28;;;;;;;27.80;29.98;100211.66;10346423;28;20093;-69
2023/05/05 11:55:33;;;;;;;2.35;0.10;;;;;;;28.32;27.85;100195.22;10343355;28;20085;-68
2023/05/05 12:00:34;;;;;;;0.75;0.30;;;;;;;28.82;26.76;100206.69;10347260;28;20113;-68
2023/05/05 12:05:36;;;;;;;1.90;0.20;;;;;;;29.20;26.57;100195.53;10345685;28;20101;-68
2023/05/05 12:10:37;;;;;;;0.20;0.10;;;;;;;29.40;25.54;100191.56;10345689;28;20050;-70
2023/05/05 12:15:38;;;;;;;0.75;0.20;;;;;;;29.76;25.43;100188.94;10344242;28;20500;-68
2023/05/05 12:20:40;;;;;;;0.68;0.10;;;;;;;29.46;25.11;100196.72;10343814;28;20050;-68
2023/05/05 12:25:42;;;;;;;2.55;0.10;;;;;;;29.29;24.71;100196.47;10342248;28;20058;-68
2023/05/05 12:30:55;;;;;;;0.43;0.10;;;;;;;29.79;24.79;100171.69;10348451;28;20073;-70
2023/05/05 12:35:57;;;;;;;0.85;0.10;;;;;;;30.08;24.77;100176.06;10349284;28;20060;-68
2023/05/05 12:40:58;;;;;;;1.08;0.10;;;;;;;29.95;25.05;100179.69;10338938;28;20077;-65
2023/05/05 12:46:01;;;;;;;1.13;0.20;;;;;;;29.63;24.90;100175.88;10338479;28;20050;-65
2023/05/05 12:51:09;;;;;;;0.38;0.20;;;;;;;29.35;25.43;100167.56;10339662;28;20054;-66
2023/05/05 12:56:30;;;;;;;1.90;0.10;;;;;;;29.81;24.78;100163.88;10340468;28;20050;-65
2023/05/05 13:01:33;;;;;;;0.35;0.35;;;;;;;29.73;24.99;100158.25;10345223;28;20054;-66
2023/05/05 13:06:36;;;;;;;1.85;0.43;;;;;;;30.03;24.36;100154.00;10334201;28;20050;-67
2023/05/05 13:11:38;;;;;;;0.70;0.20;;;;;;;29.53;25.32;100135.34;10340487;28;20070;-68
2023/05/05 13:16:39;;;;;;;1.75;0.20;;;;;;;29.45;25.10;100149.94;10339196;28;20134;-67
2023/05/05 13:21:41;;;;;;;2.28;0.20;;;;;;;29.85;24.39;100116.97;10340179;28;20488;-67
2023/05/05 13:26:42;;;;;;;2.53;0.25;;;;;;;30.57;23.92;100118.91;10333302;28;20524;-67
2023/05/05 13:31:44;;;;;;;4.43;0.30;;;;;;;30.44;23.26;100115.06;10340400;28;20504;-68
2023/05/05 13:36:46;;;;;;;0.88;0.20;;;;;;;30.95;23.65;100099.06;10340984;28;20730;-67
2023/05/05 13:41:47;;;;;;;0.55;0.20;;;;;;;30.71;24.19;100101.34;10341631;28;20054;-67
2023/05/05 13:46:49;;;;;;;0.43;0.10;;;;;;;30.61;23.75;100092.16;10340866;28;20112;-68
2023/05/05 13:51:50;;;;;;;1.30;0.82;;;;;;;31.23;23.32;100076.66;10341711;28;20425;-68
2023/05/05 13:56:51;;;;;;;0.85;0.20;;;;;;;31.67;22.73;100072.03;10338245;28;20471;-72
2023/05/05 14:01:53;;;;;;;1.77;0.30;;;;;;;30.72;23.76;100076.06;10336925;28;20058;-68
2023/05/05 14:06:57;;;;;;;3.35;0.90;;;;;;;30.69;23.50;100070.31;10338687;28;20192;-69
2023/05/05 14:11:58;;;;;;;0.98;0.10;;;;;;;30.51;23.55;100078.56;10333316;28;20050;-69
2023/05/05 14:16:59;;;;;;;0.63;0.20;;;;;;;30.29;24.14;100076.56;10337935;28;20100;-69
2023/05/05 14:22:01;;;;;;;0.40;0.20;;;;;;;29.51;24.42;100075.84;10335744;28;20137;-69
2023/05/05 14:27:03;;;;;;;1.23;0.17;;;;;;;29.18;25.19;100067.66;10334360;28;20120;-67
2023/05/05 14:32:04;;;;;;;0.75;0.20;;;;;;;28.86;25.53;100067.41;10334877;28;20054;-69
2023/05/05 14:37:06;;;;;;;3.22;0.25;;;;;;;28.33;26.20;100076.06;10333565;28;20045;-69
2023/05/05 14:42:07;;;;;;;0.20;0.13;;;;;;;27.57;27.43;100075.19;10336652;28;20539;-69
2023/05/05 14:47:09;;;;;;;2.72;0.30;;;;;;;27.79;28.61;100082.94;10335780;28;20157;-70
2023/05/05 14:52:10;;;;;;;0.40;0.10;;;;;;;27.81;28.62;100084.28;10336444;28;20141;-69
2023/05/05 14:57:11;;;;;;;1.40;0.10;;;;;;;27.34;28.26;100074.13;10333872;28;20133;-69
2023/05/05 15:02:13;;;;;;;0.93;0.10;;;;;;;26.94;28.78;100085.31;10337009;28;20054;-69
2023/05/05 15:07:14;;;;;;;3.53;0.20;;;;;;;25.98;30.09;100093.25;10339227;28;20069;-70
2023/05/05 15:12:16;;;;;;;4.85;0.10;;;;;;;25.58;30.82;100093.16;10342309;28;20405;-72
2023/05/05 15:17:17;;;;;;;2.03;0.20;;;;;;;25.15;31.16;100092.72;10346068;28;20137;-71
2023/05/05 15:22:18;;;;;;;1.92;0.10;;;;;;;24.83;32.10;100107.66;10343613;28;20101;-71
2023/05/05 15:27:20;;;;;;;0.30;0.10;;;;;;;24.45;34.38;100153.81;10345080;28;20692;-73
2023/05/05 15:32:21;;;;;;;4.43;0.20;;;;;;;21.49;45.94;100221.63;10353532;28;20695;-76
2023/05/05 15:37:23;;;;;;;1.52;0.40;;;;;;;18.81;56.33;100212.69;10350341;28;20304;-70
2023/05/05 15:42:25;;;;;;;4.80;0.95;;;;;;;17.80;61.25;100216.94;10345861;28;20125;-76
2023/05/05 15:47:26;;;;;;;2.47;0.60;;;;;;;17.41;62.29;100208.16;10348443;28;20054;-77
2023/05/05 15:52:28;;;;;;;4.55;0.52;;;;;;;17.22;62.42;100197.28;10345324;28;20042;-71
2023/05/05 15:57:29;;;;;;;1.85;0.22;;;;;;;17.17;62.11;100182.69;10348473;28;20072;-69
2023/05/05 16:02:30;;;;;;;2.80;0.60;;;;;;;17.15;62.09;100171.22;10352098;28;20089;-71
2023/05/05 16:07:32;;;;;;;2.40;1.10;;;;;;;17.12;63.16;100160.78;10346410;28;20045;-71
2023/05/05 16:12:33;;;;;;;1.10;0.30;;;;;;;17.16;64.30;100162.88;10347566;28;20085;-76
2023/05/05 16:17:35;;;;;;;2.85;0.38;;;;;;;17.30;64.30;100154.56;10343824;28;20046;-74
2023/05/05 16:22:36;;;;;;;1.45;0.47;;;;;;;17.38;64.64;100152.38;10346240;28;20056;-70
2023/05/05 16:27:38;;;;;;;1.65;0.60;;;;;;;17.59;64.54;100152.97;10352494;28;20140;-76
2023/05/05 16:32:39;;;;;;;2.63;0.50;;;;;;;17.82;64.19;100160.44;10339862;28;20405;-74
2023/05/05 16:37:41;;;;;;;1.50;0.50;;;;;;;18.02;64.06;100147.44;10338868;28;20457;-72
2023/05/05 16:42:42;;;;;;;1.23;0.40;;;;;;;18.28;64.19;100159.00;10346075;28;20046;-72
2023/05/05 16:47:45;;;;;;;3.55;1.10;;;;;;;18.47;64.36;100159.78;10342569;28;20061;-69
2023/05/05 16:52:46;;;;;;;2.58;0.43;;;;;;;18.56;64.24;100169.28;10339893;28;20054;-65
2023/05/05 16:57:48;;;;;;;3.70;1.08;;;;;;;18.67;64.60;100164.09;10344333;28;20156;-71
2023/05/05 17:02:49;;;;;;;2.15;0.70;;;;;;;18.73;64.59;100169.44;10353241;28;20535;-69
2023/05/05 17:07:51;;;;;;;1.23;0.80;;;;;;;18.80;64.71;100172.91;10374062;28;20061;-69
2023/05/05 17:12:52;;;;;;;1.73;0.80;;;;;;;18.91;64.87;100176.69;10366554;28;20100;-68
2023/05/05 17:17:54;;;;;;;1.15;0.50;;;;;;;18.92;65.15;100174.84;10362076;28;20054;-68
2023/05/05 17:22:55;;;;;;;2.53;1.20;;;;;;;19.14;65.06;100166.91;10365696;28;20062;-69
2023/05/05 17:27:57;;;;;;;5.00;0.60;;;;;;;19.32;64.64;100179.56;10366043;28;20058;-67
2023/05/05 17:32:58;;;;;;;2.85;0.55;;;;;;;19.45;64.61;100178.47;10373421;28;20131;-67
2023/05/05 17:38:00;;;;;;;2.17;0.60;;;;;;;19.58;64.48;100183.69;10392832;28;20109;-67
2023/05/05 17:43:01;;;;;;;1.80;1.58;;;;;;;19.64;65.41;100188.19;10383048;28;20085;-68
2023/05/05 17:48:02;;;;;;;1.73;1.05;;;;;;;19.57;66.33;100193.78;10380030;28;20058;-66
2023/05/05 17:53:04;;;;;;;4.18;1.52;;;;;;;19.62;66.70;100204.78;10379069;28;20057;-67
2023/05/05 17:58:05;;;;;;;3.42;1.30;;;;;;;19.64;67.11;100206.44;10378710;28;20079;-67
2023/05/05 18:03:07;;;;;;;4.50;1.17;;;;;;;19.70;67.26;100205.47;10384571;28;20034;-68
2023/05/05 18:08:08;;;;;;;4.28;1.80;;;;;;;19.76;67.20;100202.63;10393885;28;20030;-67
2023/05/05 18:13:10;;;;;;;6.35;1.67;;;;;;;19.83;67.47;100209.84;10401401;28;20052;-67
2023/05/05 18:18:11;;;;;;;6.88;1.65;;;;;;;19.89;67.47;100207.00;10396993;28;20031;-70
2023/05/05 18:23:13;;;;;;;2.70;1.80;;;;;;;19.88;67.58;100208.06;10385019;28;20046;-69
2023/05/05 18:28:16;;;;;;;3.67;1.70;;;;;;;19.88;67.96;100210.81;10383308;28;20054;-69
2023/05/05 18:33:17;;;;;;;4.05;2.10;;;;;;;19.87;67.81;100214.63;10390387;28;20082;-70
2023/05/05 18:38:20;;;;;;;9.15;3.83;;;;;;;19.90;67.93;100221.47;10351263;28;20135;-71
2023/05/05 18:43:21;;;;;;;7.97;2.20;;;;;;;19.92;67.85;100225.63;10350416;28;20061;-71
2023/05/05 18:48:23;;;;;;;7.85;1.95;;;;;;;19.90;67.72;100225.03;10349298;28;20041;-71
2023/05/05 18:53:24;;;;;;;5.55;1.80;;;;;;;19.89;67.69;100225.28;10346439;28;20532;-72
2023/05/05 18:58:26;;;;;;;8.30;2.13;;;;;;;19.89;67.72;100239.75;10343758;28;20058;-67
2023/05/05 19:03:27;;;;;;;5.68;2.28;;;;;;;19.89;68.07;100238.94;10350131;28;20137;-61
2023/05/05 19:08:28;;;;;;;4.00;2.30;;;;;;;19.89;67.81;100250.66;10348441;28;20046;-61
2023/05/05 19:13:30;;;;;;;10.25;3.83;;;;;;;19.79;68.08;100254.00;10346442;28;20088;-61
2023/05/05 19:18:32;;;;;;;6.85;2.55;;;;;;;19.74;68.13;100239.41;10364996;28;20452;-60
2023/05/05 19:23:34;;;;;;;5.25;1.65;;;;;;;19.65;67.92;100243.53;10347920;28;20078;-60
2023/05/05 19:28:36;;;;;;;5.30;2.60;;;;;;;19.42;68.19;100247.94;10346670;28;20050;-60
2023/05/05 19:33:41;;;;;;;5.47;2.63;;;;;;;19.39;68.08;100252.00;10350898;28;20098;-60
2023/05/05 19:38:43;;;;;;;8.68;2.63;;;;;;;19.39;68.24;100257.44;10343645;28;20058;-60
2023/05/05 19:43:48;;;;;;;4.80;2.67;;;;;;;19.32;68.33;100247.72;10349089;28;20069;-60
2023/05/05 19:48:50;;;;;;;6.97;2.47;;;;;;;19.21;68.59;100254.78;10342458;28;20060;-59
2023/05/05 19:53:51;;;;;;;5.13;2.50;;;;;;;19.05;68.71;100256.31;10345344;28;20050;-60
2023/05/05 19:59:00;;;;;;;5.60;2.97;;;;;;;18.87;69.05;100242.78;10350538;28;20080;-61
2023/05/05 20:04:02;;;;;;;8.25;2.95;;;;;;;18.78;69.01;100255.91;10341755;28;20449;-61
2023/05/05 20:09:04;;;;;;;3.22;1.90;;;;;;;18.69;68.96;100258.09;10351089;28;20049;-61
2023/05/05 20:14:05;;;;;;;5.07;2.28;;;;;;;18.69;68.93;100263.53;10346638;28;20050;-61
2023/05/05 20:19:07;;;;;;;7.43;3.13;;;;;;;18.69;69.04;100269.00;10349234;28;20160;-60
2023/05/05 20:24:08;;;;;;;5.38;3.50;;;;;;;18.69;68.91;100262.72;10347153;28;20086;-60
2023/05/05 20:29:09;;;;;;;10.75;3.67;;;;;;;18.65;68.99;100273.25;10340357;28;20120;-61
2023/05/05 20:34:11;;;;;;;6.38;3.22;;;;;;;18.59;69.18;100271.44;10348016;28;20152;-59
2023/05/05 20:39:15;;;;;;;4.85;2.60;;;;;;;18.65;69.11;100273.25;10343403;28;20576;-61
2023/05/05 20:44:17;;;;;;;4.55;2.53;;;;;;;18.71;69.14;100269.59;10341048;28;20060;-61
2023/05/05 20:49:18;;;;;;;5.22;3.25;;;;;;;18.80;68.87;100276.41;10340913;28;20050;-59
2023/05/05 20:54:20;;;;;;;7.30;3.03;;;;;;;18.85;68.94;100272.16;10341726;28;20120;-60
2023/05/05 20:59:21;;;;;;;3.30;2.50;;;;;;;18.81;69.10;100272.59;10343588;28;20081;-66
2023/05/05 21:04:23;;;;;;;3.75;2.70;;;;;;;18.74;69.27;100277.31;10343351;28;20133;-67
2023/05/05 21:09:24;;;;;;;3.22;2.38;;;;;;;18.60;69.36;100293.00;10338886;28;20554;-66
2023/05/05 21:14:26;;;;;;;8.07;2.60;;;;;;;18.41;69.64;100288.66;10338158;28;20053;-65
2023/05/05 21:19:27;;;;;;;8.43;2.80;;;;;;;18.22;70.03;100287.81;10340665;28;20129;-67
2023/05/05 21:24:28;;;;;;;4.40;2.60;;;;;;;18.15;69.82;100287.91;10343686;28;20583;-67
2023/05/05 21:29:36;;;;;;;7.63;2.60;;;;;;;18.13;69.91;100287.31;10337127;28;20050;-68
2023/05/05 21:34:38;;;;;;;4.07;2.97;;;;;;;18.17;69.84;100284.97;10337834;28;20055;-67
2023/05/05 21:39:40;;;;;;;4.10;3.03;;;;;;;17.99;70.03;100283.91;10342552;28;20123;-67
2023/05/05 21:44:41;;;;;;;7.13;3.15;;;;;;;17.97;70.09;100283.31;10343851;28;20062;-67
2023/05/05 21:49:43;;;;;;;5.85;3.38;;;;;;;18.00;70.15;100292.91;10351254;28;20057;-69
2023/05/05 21:54:44;;;;;;;5.03;2.90;;;;;;;17.94;70.02;100288.38;10344264;28;20054;-69
2023/05/05 21:59:46;;;;;;;5.95;3.72;;;;;;;17.76;70.50;100289.16;10338841;28;20108;-68
2023/05/05 22:04:50;;;;;;;4.32;2.92;;;;;;;17.59;70.58;100278.03;10350194;28;20058;-67
2023/05/05 22:09:51;;;;;;;4.32;3.22;;;;;;;17.47;70.60;100285.25;10347223;28;20050;-68
2023/05/05 22:14:53;;;;;;;3.80;2.63;;;;;;;17.35;70.39;100285.16;10353334;28;20181;-67
2023/05/05 22:19:54;;;;;;;10.38;3.03;;;;;;;17.28;70.55;100295.22;10348767;28;20062;-61
2023/05/05 22:24:55;;;;;;;5.22;2.42;;;;;;;17.30;70.28;100295.84;10345885;28;20173;-61
2023/05/05 22:29:57;;;;;;;4.25;2.40;;;;;;;17.18;70.10;100296.56;10350706;28;20138;-61
2023/05/05 22:34:59;;;;;;;3.53;2.58;;;;;;;17.21;69.81;100298.00;10349847;28;20049;-62
2023/05/05 22:40:00;;;;;;;5.35;3.10;;;;;;;17.23;69.82;100293.19;10351636;28;20450;-63
2023/05/05 22:45:01;;;;;;;4.10;2.67;;;;;;;17.18;69.97;100301.16;10352138;28;20046;-61
2023/05/05 22:50:03;;;;;;;4.63;3.00;;;;;;;17.16;69.75;100305.97;10346384;28;20051;-61
2023/05/05 22:55:05;;;;;;;7.35;4.80;;;;;;;17.08;70.08;100308.97;10347883;28;20552;-62
2023/05/05 23:00:09;;;;;;;3.97;2.83;;;;;;;16.96;70.24;100311.56;10348047;28;20070;-62
2023/05/05 23:05:11;;;;;;;5.13;3.17;;;;;;;16.84;70.72;100309.56;10351179;28;20053;-62
2023/05/05 23:10:13;;;;;;;7.20;2.97;;;;;;;16.84;70.24;100311.41;10352646;28;20133;-62
2023/05/05 23:15:14;;;;;;;8.73;3.20;;;;;;;16.80;70.50;100318.31;10352907;28;20045;-61